Chicago, Illinois
Traffic Map
Current Weather Conditions
Chicago, Illinois
Overcast
Overcast
37°
Feels Like: 32°
Wind Chill: 32° Ceiling: 1300
Heat Index: 37° Visibility: 10mi
Dew Point: 31° Wind: 6mph
Humidity: 79% Direction: 280° (W)
Pressure: 29.88in Gusts: 0mph
Raw Report DataKMDW 241753Z 28005KT 10SM OVC013 03/M01 A2988 RMK AO2 SLP125 T00281006 10033 20028 58005
Traffic Incident Summary
Active as of:
Severity:
Category:
InformationThere was an issue retrieving the traffic information for this location. Please try a different location or try again shortly.
Advertisements
Track Severe Weather on mobile